sensor_id;sensor_type;location;lat;lon;timestamp;P1;durP1;ratioP1;P2;durP2;ratioP2
17618;SDS011;8928;51.678;6.074;2022-12-18T00:02:11;84.53;;;27.90;;
17618;SDS011;8928;51.678;6.074;2022-12-18T00:05:01;70.23;;;25.07;;
17618;SDS011;8928;51.678;6.074;2022-12-18T00:07:48;77.13;;;26.27;;
17618;SDS011;8928;51.678;6.074;2022-12-18T00:10:36;76.13;;;25.10;;
17618;SDS011;8928;51.678;6.074;2022-12-18T00:13:23;78.73;;;26.07;;
17618;SDS011;8928;51.678;6.074;2022-12-18T00:16:11;73.00;;;24.53;;
17618;SDS011;8928;51.678;6.074;2022-12-18T00:19:00;78.13;;;25.37;;
17618;SDS011;8928;51.678;6.074;2022-12-18T00:21:47;75.10;;;25.43;;
17618;SDS011;8928;51.678;6.074;2022-12-18T00:24:34;72.07;;;25.23;;
17618;SDS011;8928;51.678;6.074;2022-12-18T00:27:22;74.73;;;26.33;;
17618;SDS011;8928;51.678;6.074;2022-12-18T00:30:10;76.83;;;25.57;;
17618;SDS011;8928;51.678;6.074;2022-12-18T00:32:57;75.70;;;25.57;;
17618;SDS011;8928;51.678;6.074;2022-12-18T00:35:44;77.87;;;25.93;;
17618;SDS011;8928;51.678;6.074;2022-12-18T00:38:32;75.00;;;24.87;;
17618;SDS011;8928;51.678;6.074;2022-12-18T00:41:20;78.93;;;24.53;;
17618;SDS011;8928;51.678;6.074;2022-12-18T00:44:23;67.30;;;22.93;;
17618;SDS011;8928;51.678;6.074;2022-12-18T00:47:10;70.47;;;23.43;;
17618;SDS011;8928;51.678;6.074;2022-12-18T00:49:57;61.97;;;22.13;;
17618;SDS011;8928;51.678;6.074;2022-12-18T00:52:44;69.40;;;23.00;;
17618;SDS011;8928;51.678;6.074;2022-12-18T00:55:31;71.47;;;22.00;;
17618;SDS011;8928;51.678;6.074;2022-12-18T00:58:18;65.53;;;21.80;;
17618;SDS011;8928;51.678;6.074;2022-12-18T01:01:06;61.83;;;21.03;;
17618;SDS011;8928;51.678;6.074;2022-12-18T01:04:01;60.53;;;21.40;;
17618;SDS011;8928;51.678;6.074;2022-12-18T01:06:49;57.43;;;20.30;;
17618;SDS011;8928;51.678;6.074;2022-12-18T01:09:36;56.13;;;19.40;;
17618;SDS011;8928;51.678;6.074;2022-12-18T01:12:23;59.40;;;20.07;;
17618;SDS011;8928;51.678;6.074;2022-12-18T01:15:10;57.20;;;19.33;;
17618;SDS011;8928;51.678;6.074;2022-12-18T01:18:00;57.33;;;19.53;;
17618;SDS011;8928;51.678;6.074;2022-12-18T01:20:47;53.23;;;18.20;;
17618;SDS011;8928;51.678;6.074;2022-12-18T01:23:34;54.63;;;19.03;;
17618;SDS011;8928;51.678;6.074;2022-12-18T01:26:21;58.03;;;19.70;;
17618;SDS011;8928;51.678;6.074;2022-12-18T01:29:09;55.17;;;18.43;;
17618;SDS011;8928;51.678;6.074;2022-12-18T01:31:56;47.53;;;17.33;;
17618;SDS011;8928;51.678;6.074;2022-12-18T01:34:44;53.63;;;18.30;;
17618;SDS011;8928;51.678;6.074;2022-12-18T01:37:31;52.73;;;18.50;;
17618;SDS011;8928;51.678;6.074;2022-12-18T01:40:18;52.43;;;17.97;;
17618;SDS011;8928;51.678;6.074;2022-12-18T01:43:08;48.67;;;17.37;;
17618;SDS011;8928;51.678;6.074;2022-12-18T01:45:55;47.67;;;17.30;;
17618;SDS011;8928;51.678;6.074;2022-12-18T01:48:46;52.53;;;18.17;;
17618;SDS011;8928;51.678;6.074;2022-12-18T01:51:37;48.23;;;16.20;;
17618;SDS011;8928;51.678;6.074;2022-12-18T01:54:27;46.00;;;17.10;;
17618;SDS011;8928;51.678;6.074;2022-12-18T01:57:15;47.47;;;16.97;;
17618;SDS011;8928;51.678;6.074;2022-12-18T02:00:03;47.33;;;16.30;;
17618;SDS011;8928;51.678;6.074;2022-12-18T02:02:53;45.07;;;15.97;;
17618;SDS011;8928;51.678;6.074;2022-12-18T02:05:43;49.90;;;17.37;;
17618;SDS011;8928;51.678;6.074;2022-12-18T02:08:35;45.53;;;15.57;;
17618;SDS011;8928;51.678;6.074;2022-12-18T02:11:30;45.23;;;15.37;;
17618;SDS011;8928;51.678;6.074;2022-12-18T02:14:28;41.60;;;15.37;;
17618;SDS011;8928;51.678;6.074;2022-12-18T02:17:23;45.37;;;15.80;;
17618;SDS011;8928;51.678;6.074;2022-12-18T02:20:17;45.30;;;15.77;;
17618;SDS011;8928;51.678;6.074;2022-12-18T02:23:12;48.00;;;15.20;;
17618;SDS011;8928;51.678;6.074;2022-12-18T02:26:14;44.73;;;15.17;;
17618;SDS011;8928;51.678;6.074;2022-12-18T02:29:08;43.87;;;15.43;;
17618;SDS011;8928;51.678;6.074;2022-12-18T02:32:00;44.47;;;15.37;;
17618;SDS011;8928;51.678;6.074;2022-12-18T02:34:52;45.83;;;14.87;;
17618;SDS011;8928;51.678;6.074;2022-12-18T02:37:42;44.80;;;15.77;;
17618;SDS011;8928;51.678;6.074;2022-12-18T02:40:31;45.47;;;15.07;;
17618;SDS011;8928;51.678;6.074;2022-12-18T02:43:20;45.63;;;14.10;;
17618;SDS011;8928;51.678;6.074;2022-12-18T02:46:22;42.00;;;14.97;;
17618;SDS011;8928;51.678;6.074;2022-12-18T02:49:18;42.07;;;14.57;;
17618;SDS011;8928;51.678;6.074;2022-12-18T02:52:13;42.87;;;15.57;;
17618;SDS011;8928;51.678;6.074;2022-12-18T02:55:16;43.97;;;14.90;;
17618;SDS011;8928;51.678;6.074;2022-12-18T02:58:11;44.60;;;15.57;;
17618;SDS011;8928;51.678;6.074;2022-12-18T03:01:06;43.30;;;15.43;;
17618;SDS011;8928;51.678;6.074;2022-12-18T03:04:01;45.97;;;15.63;;
17618;SDS011;8928;51.678;6.074;2022-12-18T03:06:53;42.87;;;15.00;;
17618;SDS011;8928;51.678;6.074;2022-12-18T03:09:43;45.77;;;16.30;;
17618;SDS011;8928;51.678;6.074;2022-12-18T03:12:35;39.90;;;14.40;;
17618;SDS011;8928;51.678;6.074;2022-12-18T03:15:27;41.90;;;14.83;;
17618;SDS011;8928;51.678;6.074;2022-12-18T03:18:19;44.40;;;15.03;;
17618;SDS011;8928;51.678;6.074;2022-12-18T03:21:10;42.77;;;16.27;;
17618;SDS011;8928;51.678;6.074;2022-12-18T03:24:00;39.93;;;14.63;;
17618;SDS011;8928;51.678;6.074;2022-12-18T03:26:52;39.50;;;15.37;;
17618;SDS011;8928;51.678;6.074;2022-12-18T03:29:47;44.27;;;15.73;;
17618;SDS011;8928;51.678;6.074;2022-12-18T03:32:39;41.77;;;14.90;;
17618;SDS011;8928;51.678;6.074;2022-12-18T03:35:33;40.83;;;15.57;;
17618;SDS011;8928;51.678;6.074;2022-12-18T03:38:23;44.00;;;14.60;;
17618;SDS011;8928;51.678;6.074;2022-12-18T03:41:13;41.37;;;15.30;;
17618;SDS011;8928;51.678;6.074;2022-12-18T03:44:07;39.43;;;14.97;;
17618;SDS011;8928;51.678;6.074;2022-12-18T03:47:01;38.77;;;14.30;;
17618;SDS011;8928;51.678;6.074;2022-12-18T03:49:55;41.27;;;15.27;;
17618;SDS011;8928;51.678;6.074;2022-12-18T03:52:48;42.87;;;15.63;;
17618;SDS011;8928;51.678;6.074;2022-12-18T03:55:39;41.03;;;14.70;;
17618;SDS011;8928;51.678;6.074;2022-12-18T03:58:28;42.07;;;14.80;;
17618;SDS011;8928;51.678;6.074;2022-12-18T04:01:18;40.10;;;15.00;;
17618;SDS011;8928;51.678;6.074;2022-12-18T04:04:08;39.83;;;14.53;;
17618;SDS011;8928;51.678;6.074;2022-12-18T04:06:57;42.17;;;15.27;;
17618;SDS011;8928;51.678;6.074;2022-12-18T04:09:46;41.30;;;15.00;;
17618;SDS011;8928;51.678;6.074;2022-12-18T04:12:36;42.83;;;15.70;;
17618;SDS011;8928;51.678;6.074;2022-12-18T04:15:24;46.07;;;15.57;;
17618;SDS011;8928;51.678;6.074;2022-12-18T04:18:11;41.13;;;15.10;;
17618;SDS011;8928;51.678;6.074;2022-12-18T04:20:58;42.17;;;14.60;;
17618;SDS011;8928;51.678;6.074;2022-12-18T04:23:45;39.13;;;15.57;;
17618;SDS011;8928;51.678;6.074;2022-12-18T04:26:33;40.83;;;14.87;;
17618;SDS011;8928;51.678;6.074;2022-12-18T04:29:20;37.13;;;14.17;;
17618;SDS011;8928;51.678;6.074;2022-12-18T04:32:08;39.97;;;14.47;;
17618;SDS011;8928;51.678;6.074;2022-12-18T04:34:55;42.93;;;14.43;;
17618;SDS011;8928;51.678;6.074;2022-12-18T04:37:42;47.73;;;15.43;;
17618;SDS011;8928;51.678;6.074;2022-12-18T04:40:29;41.30;;;14.30;;
17618;SDS011;8928;51.678;6.074;2022-12-18T04:43:17;44.63;;;14.90;;
17618;SDS011;8928;51.678;6.074;2022-12-18T04:46:04;39.80;;;15.03;;
17618;SDS011;8928;51.678;6.074;2022-12-18T04:48:52;39.53;;;14.40;;
17618;SDS011;8928;51.678;6.074;2022-12-18T04:51:39;39.07;;;15.50;;
17618;SDS011;8928;51.678;6.074;2022-12-18T04:54:26;44.73;;;15.43;;
17618;SDS011;8928;51.678;6.074;2022-12-18T04:57:14;39.77;;;14.97;;
17618;SDS011;8928;51.678;6.074;2022-12-18T05:00:02;40.00;;;14.30;;
17618;SDS011;8928;51.678;6.074;2022-12-18T05:02:50;42.53;;;14.87;;
17618;SDS011;8928;51.678;6.074;2022-12-18T05:05:37;39.17;;;14.77;;
17618;SDS011;8928;51.678;6.074;2022-12-18T05:08:24;37.80;;;13.83;;
17618;SDS011;8928;51.678;6.074;2022-12-18T05:11:12;41.53;;;14.70;;
17618;SDS011;8928;51.678;6.074;2022-12-18T05:14:01;35.70;;;14.23;;
17618;SDS011;8928;51.678;6.074;2022-12-18T05:16:49;38.23;;;14.40;;
17618;SDS011;8928;51.678;6.074;2022-12-18T05:19:39;42.17;;;15.53;;
17618;SDS011;8928;51.678;6.074;2022-12-18T05:22:26;39.77;;;14.80;;
17618;SDS011;8928;51.678;6.074;2022-12-18T05:25:14;43.27;;;15.50;;
17618;SDS011;8928;51.678;6.074;2022-12-18T05:28:01;37.10;;;14.53;;
17618;SDS011;8928;51.678;6.074;2022-12-18T05:30:48;38.37;;;14.63;;
17618;SDS011;8928;51.678;6.074;2022-12-18T05:33:37;33.80;;;13.87;;
17618;SDS011;8928;51.678;6.074;2022-12-18T05:36:24;41.90;;;15.07;;
17618;SDS011;8928;51.678;6.074;2022-12-18T05:39:11;40.47;;;14.57;;
17618;SDS011;8928;51.678;6.074;2022-12-18T05:41:58;40.13;;;15.63;;
17618;SDS011;8928;51.678;6.074;2022-12-18T05:44:45;39.37;;;14.93;;
17618;SDS011;8928;51.678;6.074;2022-12-18T05:47:32;36.50;;;14.27;;
17618;SDS011;8928;51.678;6.074;2022-12-18T05:50:21;37.87;;;15.00;;
17618;SDS011;8928;51.678;6.074;2022-12-18T05:53:08;40.40;;;15.50;;
17618;SDS011;8928;51.678;6.074;2022-12-18T05:55:59;40.73;;;14.57;;
17618;SDS011;8928;51.678;6.074;2022-12-18T05:58:46;37.00;;;14.60;;
17618;SDS011;8928;51.678;6.074;2022-12-18T06:01:37;37.80;;;14.30;;
17618;SDS011;8928;51.678;6.074;2022-12-18T06:04:24;37.53;;;14.40;;
17618;SDS011;8928;51.678;6.074;2022-12-18T06:07:14;38.47;;;14.37;;
17618;SDS011;8928;51.678;6.074;2022-12-18T06:10:01;39.17;;;14.43;;
17618;SDS011;8928;51.678;6.074;2022-12-18T06:12:48;37.70;;;14.07;;
17618;SDS011;8928;51.678;6.074;2022-12-18T06:15:35;38.37;;;14.57;;
17618;SDS011;8928;51.678;6.074;2022-12-18T06:18:23;36.07;;;14.47;;
17618;SDS011;8928;51.678;6.074;2022-12-18T06:21:10;39.87;;;14.27;;
17618;SDS011;8928;51.678;6.074;2022-12-18T06:23:59;42.80;;;15.33;;
17618;SDS011;8928;51.678;6.074;2022-12-18T06:26:46;38.20;;;14.40;;
17618;SDS011;8928;51.678;6.074;2022-12-18T06:29:33;35.53;;;13.77;;
17618;SDS011;8928;51.678;6.074;2022-12-18T06:32:20;33.57;;;13.93;;
17618;SDS011;8928;51.678;6.074;2022-12-18T06:35:07;35.10;;;14.27;;
17618;SDS011;8928;51.678;6.074;2022-12-18T06:37:55;39.17;;;15.17;;
17618;SDS011;8928;51.678;6.074;2022-12-18T06:40:43;34.43;;;13.90;;
17618;SDS011;8928;51.678;6.074;2022-12-18T06:43:30;35.93;;;13.57;;
17618;SDS011;8928;51.678;6.074;2022-12-18T06:46:17;36.47;;;13.50;;
17618;SDS011;8928;51.678;6.074;2022-12-18T06:49:04;32.43;;;12.93;;
17618;SDS011;8928;51.678;6.074;2022-12-18T06:51:52;36.47;;;13.80;;
17618;SDS011;8928;51.678;6.074;2022-12-18T06:54:39;35.07;;;14.07;;
17618;SDS011;8928;51.678;6.074;2022-12-18T06:57:27;33.17;;;13.50;;
17618;SDS011;8928;51.678;6.074;2022-12-18T07:00:14;33.03;;;13.37;;
17618;SDS011;8928;51.678;6.074;2022-12-18T07:03:01;36.07;;;13.13;;
17618;SDS011;8928;51.678;6.074;2022-12-18T07:05:48;33.10;;;13.50;;
17618;SDS011;8928;51.678;6.074;2022-12-18T07:08:35;35.77;;;13.33;;
17618;SDS011;8928;51.678;6.074;2022-12-18T07:11:23;32.77;;;13.67;;
17618;SDS011;8928;51.678;6.074;2022-12-18T07:14:11;32.27;;;13.40;;
17618;SDS011;8928;51.678;6.074;2022-12-18T07:16:58;34.37;;;13.67;;
17618;SDS011;8928;51.678;6.074;2022-12-18T07:19:45;33.33;;;13.67;;
17618;SDS011;8928;51.678;6.074;2022-12-18T07:22:32;35.13;;;14.17;;
17618;SDS011;8928;51.678;6.074;2022-12-18T07:25:19;34.30;;;12.93;;
17618;SDS011;8928;51.678;6.074;2022-12-18T07:28:06;37.30;;;14.93;;
17618;SDS011;8928;51.678;6.074;2022-12-18T07:30:54;33.33;;;13.90;;
17618;SDS011;8928;51.678;6.074;2022-12-18T07:33:41;33.97;;;13.33;;
17618;SDS011;8928;51.678;6.074;2022-12-18T07:36:29;29.73;;;12.57;;
17618;SDS011;8928;51.678;6.074;2022-12-18T07:39:16;31.73;;;12.23;;
17618;SDS011;8928;51.678;6.074;2022-12-18T07:42:03;32.07;;;11.97;;
17618;SDS011;8928;51.678;6.074;2022-12-18T07:45:14;30.43;;;11.17;;
17618;SDS011;8928;51.678;6.074;2022-12-18T07:48:02;28.80;;;12.17;;
17618;SDS011;8928;51.678;6.074;2022-12-18T07:50:49;33.37;;;12.47;;
17618;SDS011;8928;51.678;6.074;2022-12-18T07:53:36;29.37;;;12.03;;
17618;SDS011;8928;51.678;6.074;2022-12-18T07:56:24;30.17;;;12.50;;
17618;SDS011;8928;51.678;6.074;2022-12-18T07:59:11;31.53;;;11.63;;
17618;SDS011;8928;51.678;6.074;2022-12-18T08:01:58;27.87;;;11.30;;
17618;SDS011;8928;51.678;6.074;2022-12-18T08:04:46;29.50;;;11.33;;
17618;SDS011;8928;51.678;6.074;2022-12-18T08:07:33;29.00;;;12.13;;
17618;SDS011;8928;51.678;6.074;2022-12-18T08:10:20;27.90;;;11.50;;
17618;SDS011;8928;51.678;6.074;2022-12-18T08:13:07;31.33;;;11.97;;
17618;SDS011;8928;51.678;6.074;2022-12-18T08:15:55;30.10;;;11.83;;
17618;SDS011;8928;51.678;6.074;2022-12-18T08:18:43;27.57;;;12.23;;
17618;SDS011;8928;51.678;6.074;2022-12-18T08:21:31;28.97;;;11.77;;
17618;SDS011;8928;51.678;6.074;2022-12-18T08:24:18;29.13;;;11.90;;
17618;SDS011;8928;51.678;6.074;2022-12-18T08:27:05;29.40;;;11.93;;
17618;SDS011;8928;51.678;6.074;2022-12-18T08:29:52;28.27;;;11.27;;
17618;SDS011;8928;51.678;6.074;2022-12-18T08:32:39;29.20;;;11.83;;
17618;SDS011;8928;51.678;6.074;2022-12-18T08:35:26;29.10;;;11.27;;
17618;SDS011;8928;51.678;6.074;2022-12-18T08:38:15;25.70;;;11.23;;
17618;SDS011;8928;51.678;6.074;2022-12-18T08:41:02;27.40;;;11.60;;
17618;SDS011;8928;51.678;6.074;2022-12-18T08:43:51;26.50;;;11.30;;
17618;SDS011;8928;51.678;6.074;2022-12-18T08:46:55;29.40;;;11.47;;
17618;SDS011;8928;51.678;6.074;2022-12-18T08:49:42;25.43;;;11.03;;
17618;SDS011;8928;51.678;6.074;2022-12-18T08:52:31;25.00;;;10.80;;
17618;SDS011;8928;51.678;6.074;2022-12-18T08:55:19;29.73;;;11.00;;
17618;SDS011;8928;51.678;6.074;2022-12-18T08:58:06;28.17;;;11.00;;
17618;SDS011;8928;51.678;6.074;2022-12-18T09:00:53;24.30;;;11.00;;
17618;SDS011;8928;51.678;6.074;2022-12-18T09:03:41;25.83;;;10.60;;
17618;SDS011;8928;51.678;6.074;2022-12-18T09:06:28;27.53;;;10.57;;
17618;SDS011;8928;51.678;6.074;2022-12-18T09:09:15;23.73;;;10.43;;
17618;SDS011;8928;51.678;6.074;2022-12-18T09:12:03;27.07;;;11.13;;
17618;SDS011;8928;51.678;6.074;2022-12-18T09:14:50;27.03;;;10.73;;
17618;SDS011;8928;51.678;6.074;2022-12-18T09:17:37;24.33;;;10.37;;
17618;SDS011;8928;51.678;6.074;2022-12-18T09:20:24;25.20;;;10.27;;
17618;SDS011;8928;51.678;6.074;2022-12-18T09:23:13;24.10;;;10.40;;
17618;SDS011;8928;51.678;6.074;2022-12-18T09:26:01;27.30;;;10.90;;
17618;SDS011;8928;51.678;6.074;2022-12-18T09:28:49;26.27;;;10.60;;
17618;SDS011;8928;51.678;6.074;2022-12-18T09:31:37;24.00;;;10.33;;
17618;SDS011;8928;51.678;6.074;2022-12-18T09:34:25;25.60;;;10.83;;
17618;SDS011;8928;51.678;6.074;2022-12-18T09:37:12;23.57;;;10.03;;
17618;SDS011;8928;51.678;6.074;2022-12-18T09:39:59;25.10;;;10.40;;
17618;SDS011;8928;51.678;6.074;2022-12-18T09:42:47;25.47;;;10.80;;
17618;SDS011;8928;51.678;6.074;2022-12-18T09:45:40;22.37;;;10.10;;
17618;SDS011;8928;51.678;6.074;2022-12-18T09:48:31;25.43;;;10.20;;
17618;SDS011;8928;51.678;6.074;2022-12-18T09:51:22;24.47;;;10.60;;
17618;SDS011;8928;51.678;6.074;2022-12-18T09:54:14;26.47;;;10.73;;
17618;SDS011;8928;51.678;6.074;2022-12-18T09:57:13;25.90;;;10.73;;
17618;SDS011;8928;51.678;6.074;2022-12-18T10:00:03;21.97;;;10.20;;
17618;SDS011;8928;51.678;6.074;2022-12-18T10:02:58;25.50;;;10.57;;
17618;SDS011;8928;51.678;6.074;2022-12-18T10:05:51;22.87;;;10.30;;
17618;SDS011;8928;51.678;6.074;2022-12-18T10:08:49;21.67;;;9.90;;
17618;SDS011;8928;51.678;6.074;2022-12-18T10:11:43;23.33;;;10.03;;
17618;SDS011;8928;51.678;6.074;2022-12-18T10:14:36;24.83;;;10.60;;
17618;SDS011;8928;51.678;6.074;2022-12-18T10:17:35;24.90;;;11.00;;
17618;SDS011;8928;51.678;6.074;2022-12-18T10:20:34;23.40;;;9.73;;
17618;SDS011;8928;51.678;6.074;2022-12-18T10:23:31;26.07;;;10.57;;
17618;SDS011;8928;51.678;6.074;2022-12-18T10:26:23;25.20;;;10.40;;
17618;SDS011;8928;51.678;6.074;2022-12-18T10:29:12;21.57;;;10.13;;
17618;SDS011;8928;51.678;6.074;2022-12-18T10:32:00;26.00;;;10.27;;
17618;SDS011;8928;51.678;6.074;2022-12-18T10:34:48;25.03;;;10.50;;
17618;SDS011;8928;51.678;6.074;2022-12-18T10:37:37;24.90;;;10.27;;
17618;SDS011;8928;51.678;6.074;2022-12-18T10:40:49;23.17;;;10.17;;
17618;SDS011;8928;51.678;6.074;2022-12-18T10:43:38;23.03;;;10.63;;
17618;SDS011;8928;51.678;6.074;2022-12-18T10:46:26;23.33;;;9.63;;
17618;SDS011;8928;51.678;6.074;2022-12-18T10:49:19;23.13;;;10.23;;
17618;SDS011;8928;51.678;6.074;2022-12-18T10:52:14;24.63;;;10.70;;
17618;SDS011;8928;51.678;6.074;2022-12-18T10:55:05;24.27;;;10.37;;
17618;SDS011;8928;51.678;6.074;2022-12-18T10:58:13;23.23;;;10.23;;
17618;SDS011;8928;51.678;6.074;2022-12-18T11:01:07;24.57;;;10.37;;
17618;SDS011;8928;51.678;6.074;2022-12-18T11:04:00;23.60;;;10.17;;
17618;SDS011;8928;51.678;6.074;2022-12-18T11:06:54;26.20;;;10.27;;
17618;SDS011;8928;51.678;6.074;2022-12-18T11:09:46;24.53;;;9.83;;
17618;SDS011;8928;51.678;6.074;2022-12-18T11:12:50;23.17;;;10.37;;
17618;SDS011;8928;51.678;6.074;2022-12-18T11:15:39;23.27;;;10.20;;
17618;SDS011;8928;51.678;6.074;2022-12-18T11:18:28;20.83;;;9.93;;
17618;SDS011;8928;51.678;6.074;2022-12-18T11:21:16;23.37;;;10.63;;
17618;SDS011;8928;51.678;6.074;2022-12-18T11:24:04;26.10;;;10.73;;
17618;SDS011;8928;51.678;6.074;2022-12-18T11:26:51;27.63;;;10.60;;
17618;SDS011;8928;51.678;6.074;2022-12-18T11:29:39;21.23;;;9.90;;
17618;SDS011;8928;51.678;6.074;2022-12-18T11:32:31;23.93;;;10.10;;
17618;SDS011;8928;51.678;6.074;2022-12-18T11:35:22;23.20;;;10.60;;
17618;SDS011;8928;51.678;6.074;2022-12-18T11:38:17;25.67;;;10.40;;
17618;SDS011;8928;51.678;6.074;2022-12-18T11:41:13;23.17;;;10.20;;
17618;SDS011;8928;51.678;6.074;2022-12-18T11:44:06;23.60;;;10.23;;
17618;SDS011;8928;51.678;6.074;2022-12-18T11:47:00;24.30;;;10.33;;
17618;SDS011;8928;51.678;6.074;2022-12-18T11:49:52;21.73;;;10.10;;
17618;SDS011;8928;51.678;6.074;2022-12-18T11:52:42;26.17;;;10.73;;
17618;SDS011;8928;51.678;6.074;2022-12-18T11:55:31;25.37;;;10.93;;
17618;SDS011;8928;51.678;6.074;2022-12-18T11:58:33;23.57;;;10.47;;
17618;SDS011;8928;51.678;6.074;2022-12-18T12:01:32;23.40;;;10.53;;
17618;SDS011;8928;51.678;6.074;2022-12-18T12:04:37;27.03;;;10.67;;
17618;SDS011;8928;51.678;6.074;2022-12-18T12:07:34;22.70;;;10.87;;
17618;SDS011;8928;51.678;6.074;2022-12-18T12:10:39;25.40;;;11.03;;
17618;SDS011;8928;51.678;6.074;2022-12-18T12:13:41;23.43;;;10.93;;
17618;SDS011;8928;51.678;6.074;2022-12-18T12:16:36;23.43;;;10.63;;
17618;SDS011;8928;51.678;6.074;2022-12-18T12:19:33;25.40;;;10.43;;
17618;SDS011;8928;51.678;6.074;2022-12-18T12:22:30;23.47;;;10.80;;
17618;SDS011;8928;51.678;6.074;2022-12-18T12:25:29;24.13;;;10.93;;
17618;SDS011;8928;51.678;6.074;2022-12-18T12:28:25;23.80;;;11.00;;
17618;SDS011;8928;51.678;6.074;2022-12-18T12:31:25;25.77;;;11.57;;
17618;SDS011;8928;51.678;6.074;2022-12-18T12:34:26;25.27;;;10.67;;
17618;SDS011;8928;51.678;6.074;2022-12-18T12:37:23;26.37;;;11.23;;
17618;SDS011;8928;51.678;6.074;2022-12-18T12:40:22;25.70;;;11.20;;
17618;SDS011;8928;51.678;6.074;2022-12-18T12:43:16;26.73;;;11.43;;
17618;SDS011;8928;51.678;6.074;2022-12-18T12:46:10;29.43;;;11.33;;
17618;SDS011;8928;51.678;6.074;2022-12-18T12:49:00;25.57;;;11.03;;
17618;SDS011;8928;51.678;6.074;2022-12-18T12:51:50;24.47;;;11.03;;
17618;SDS011;8928;51.678;6.074;2022-12-18T12:54:45;27.47;;;10.80;;
17618;SDS011;8928;51.678;6.074;2022-12-18T12:57:34;27.40;;;11.53;;
17618;SDS011;8928;51.678;6.074;2022-12-18T13:00:26;26.30;;;11.50;;
17618;SDS011;8928;51.678;6.074;2022-12-18T13:03:29;28.40;;;12.27;;
17618;SDS011;8928;51.678;6.074;2022-12-18T13:06:33;27.70;;;12.40;;
17618;SDS011;8928;51.678;6.074;2022-12-18T13:09:29;27.77;;;11.90;;
17618;SDS011;8928;51.678;6.074;2022-12-18T13:12:18;24.77;;;11.30;;
17618;SDS011;8928;51.678;6.074;2022-12-18T13:15:24;25.90;;;11.67;;
17618;SDS011;8928;51.678;6.074;2022-12-18T13:18:15;29.13;;;11.73;;
17618;SDS011;8928;51.678;6.074;2022-12-18T13:21:07;25.73;;;11.27;;
17618;SDS011;8928;51.678;6.074;2022-12-18T13:24:14;24.83;;;11.33;;
17618;SDS011;8928;51.678;6.074;2022-12-18T13:30:51;29.43;;;11.90;;
17618;SDS011;8928;51.678;6.074;2022-12-18T13:33:41;28.60;;;11.43;;
17618;SDS011;8928;51.678;6.074;2022-12-18T13:36:30;28.53;;;12.13;;
17618;SDS011;8928;51.678;6.074;2022-12-18T13:42:31;27.90;;;12.43;;
17618;SDS011;8928;51.678;6.074;2022-12-18T13:45:46;25.77;;;11.70;;
17618;SDS011;8928;51.678;6.074;2022-12-18T13:48:37;30.30;;;11.83;;
17618;SDS011;8928;51.678;6.074;2022-12-18T13:51:25;27.00;;;11.97;;
17618;SDS011;8928;51.678;6.074;2022-12-18T13:54:18;27.33;;;11.50;;
17618;SDS011;8928;51.678;6.074;2022-12-18T13:57:24;28.97;;;12.63;;
17618;SDS011;8928;51.678;6.074;2022-12-18T14:00:23;26.67;;;11.57;;
17618;SDS011;8928;51.678;6.074;2022-12-18T14:03:16;30.13;;;12.20;;
17618;SDS011;8928;51.678;6.074;2022-12-18T14:06:07;31.10;;;12.33;;
17618;SDS011;8928;51.678;6.074;2022-12-18T14:08:55;28.73;;;12.07;;
17618;SDS011;8928;51.678;6.074;2022-12-18T14:11:46;29.93;;;12.60;;
17618;SDS011;8928;51.678;6.074;2022-12-18T14:14:33;29.57;;;12.60;;
17618;SDS011;8928;51.678;6.074;2022-12-18T14:17:20;29.67;;;12.73;;
17618;SDS011;8928;51.678;6.074;2022-12-18T14:20:12;27.23;;;12.00;;
17618;SDS011;8928;51.678;6.074;2022-12-18T14:23:02;41.13;;;16.80;;
17618;SDS011;8928;51.678;6.074;2022-12-18T14:25:49;30.53;;;13.00;;
17618;SDS011;8928;51.678;6.074;2022-12-18T14:28:42;27.03;;;12.13;;
17618;SDS011;8928;51.678;6.074;2022-12-18T14:31:30;28.57;;;12.40;;
17618;SDS011;8928;51.678;6.074;2022-12-18T14:34:18;29.63;;;13.10;;
17618;SDS011;8928;51.678;6.074;2022-12-18T14:37:12;29.80;;;13.23;;
17618;SDS011;8928;51.678;6.074;2022-12-18T14:40:05;25.83;;;11.60;;
17618;SDS011;8928;51.678;6.074;2022-12-18T14:42:52;30.10;;;12.67;;
17618;SDS011;8928;51.678;6.074;2022-12-18T14:45:40;32.53;;;12.97;;
17618;SDS011;8928;51.678;6.074;2022-12-18T14:48:35;29.00;;;13.10;;
17618;SDS011;8928;51.678;6.074;2022-12-18T14:51:28;30.63;;;12.97;;
17618;SDS011;8928;51.678;6.074;2022-12-18T14:54:17;31.57;;;13.50;;
17618;SDS011;8928;51.678;6.074;2022-12-18T14:57:20;31.83;;;13.53;;
17618;SDS011;8928;51.678;6.074;2022-12-18T15:00:14;29.50;;;13.37;;
17618;SDS011;8928;51.678;6.074;2022-12-18T15:03:02;33.80;;;13.90;;
17618;SDS011;8928;51.678;6.074;2022-12-18T15:05:54;37.57;;;14.23;;
17618;SDS011;8928;51.678;6.074;2022-12-18T15:08:41;29.93;;;13.10;;
17618;SDS011;8928;51.678;6.074;2022-12-18T15:11:32;33.90;;;13.93;;
17618;SDS011;8928;51.678;6.074;2022-12-18T15:14:32;32.30;;;14.13;;
17618;SDS011;8928;51.678;6.074;2022-12-18T15:17:22;33.80;;;13.73;;
17618;SDS011;8928;51.678;6.074;2022-12-18T15:20:10;32.80;;;13.90;;
17618;SDS011;8928;51.678;6.074;2022-12-18T15:22:57;34.67;;;14.67;;
17618;SDS011;8928;51.678;6.074;2022-12-18T15:25:44;33.07;;;14.33;;
17618;SDS011;8928;51.678;6.074;2022-12-18T15:28:35;34.87;;;14.83;;
17618;SDS011;8928;51.678;6.074;2022-12-18T15:31:28;34.67;;;13.93;;
17618;SDS011;8928;51.678;6.074;2022-12-18T15:34:18;32.17;;;13.67;;
17618;SDS011;8928;51.678;6.074;2022-12-18T15:37:07;36.00;;;13.67;;
17618;SDS011;8928;51.678;6.074;2022-12-18T15:39:54;33.30;;;14.10;;
17618;SDS011;8928;51.678;6.074;2022-12-18T15:42:41;33.10;;;13.70;;
17618;SDS011;8928;51.678;6.074;2022-12-18T15:45:46;31.33;;;13.73;;
17618;SDS011;8928;51.678;6.074;2022-12-18T15:48:35;32.30;;;13.50;;
17618;SDS011;8928;51.678;6.074;2022-12-18T15:51:26;35.60;;;14.57;;
17618;SDS011;8928;51.678;6.074;2022-12-18T15:54:16;36.10;;;14.87;;
17618;SDS011;8928;51.678;6.074;2022-12-18T15:57:23;34.27;;;14.37;;
17618;SDS011;8928;51.678;6.074;2022-12-18T16:00:11;36.10;;;14.57;;
17618;SDS011;8928;51.678;6.074;2022-12-18T16:02:59;37.40;;;15.33;;
17618;SDS011;8928;51.678;6.074;2022-12-18T16:05:47;34.13;;;14.63;;
17618;SDS011;8928;51.678;6.074;2022-12-18T16:08:34;38.10;;;15.43;;
17618;SDS011;8928;51.678;6.074;2022-12-18T16:11:21;37.47;;;15.50;;
17618;SDS011;8928;51.678;6.074;2022-12-18T16:14:23;37.27;;;15.83;;
17618;SDS011;8928;51.678;6.074;2022-12-18T16:17:13;35.47;;;15.20;;
17618;SDS011;8928;51.678;6.074;2022-12-18T16:20:00;36.37;;;15.07;;
17618;SDS011;8928;51.678;6.074;2022-12-18T16:22:49;43.43;;;15.73;;
17618;SDS011;8928;51.678;6.074;2022-12-18T16:25:36;38.23;;;15.77;;
17618;SDS011;8928;51.678;6.074;2022-12-18T16:28:23;37.93;;;15.27;;
17618;SDS011;8928;51.678;6.074;2022-12-18T16:31:10;37.93;;;15.87;;
17618;SDS011;8928;51.678;6.074;2022-12-18T16:34:11;41.70;;;16.43;;
17618;SDS011;8928;51.678;6.074;2022-12-18T16:36:59;40.47;;;16.20;;
17618;SDS011;8928;51.678;6.074;2022-12-18T16:39:49;39.33;;;16.30;;
17618;SDS011;8928;51.678;6.074;2022-12-18T16:42:36;37.17;;;15.83;;
17618;SDS011;8928;51.678;6.074;2022-12-18T16:45:27;36.70;;;15.77;;
17618;SDS011;8928;51.678;6.074;2022-12-18T16:48:18;40.13;;;17.90;;
17618;SDS011;8928;51.678;6.074;2022-12-18T16:51:05;40.23;;;16.63;;
17618;SDS011;8928;51.678;6.074;2022-12-18T16:53:52;41.07;;;16.40;;
17618;SDS011;8928;51.678;6.074;2022-12-18T16:56:40;41.77;;;16.77;;
17618;SDS011;8928;51.678;6.074;2022-12-18T16:59:28;41.97;;;16.90;;
17618;SDS011;8928;51.678;6.074;2022-12-18T17:02:15;42.97;;;17.43;;